createdAt,value
2022-12-27T00:01:29.814Z,53.00
2022-12-27T00:03:56.468Z,48.80
2022-12-27T00:06:24.263Z,55.00
2022-12-27T00:08:51.066Z,51.00
2022-12-27T00:11:19.088Z,52.00
2022-12-27T00:13:45.819Z,55.50
2022-12-27T00:16:13.700Z,54.50
2022-12-27T00:18:40.840Z,53.80
2022-12-27T00:21:08.046Z,53.75
2022-12-27T00:23:35.770Z,50.75
2022-12-27T00:26:06.853Z,51.40
2022-12-27T00:28:34.367Z,50.80
2022-12-27T00:31:01.553Z,50.00
2022-12-27T00:33:29.352Z,51.20
2022-12-27T00:35:56.188Z,50.60
2022-12-27T00:38:22.691Z,49.25
2022-12-27T00:40:49.202Z,51.00
2022-12-27T00:43:15.845Z,51.00
2022-12-27T00:45:42.459Z,51.00
2022-12-27T00:48:08.931Z,47.50
2022-12-27T00:50:35.620Z,47.60
2022-12-27T00:53:02.155Z,47.80
2022-12-27T00:55:28.584Z,49.25
2022-12-27T00:57:55.067Z,45.50
2022-12-27T01:00:21.651Z,48.00
2022-12-27T01:02:48.085Z,46.60
2022-12-27T01:05:14.653Z,47.25
2022-12-27T01:07:41.266Z,45.50
2022-12-27T01:10:07.941Z,44.80
2022-12-27T01:12:35.092Z,46.00
2022-12-27T01:15:01.579Z,42.60
2022-12-27T01:17:29.071Z,44.75
2022-12-27T01:19:55.612Z,44.75
2022-12-27T01:22:22.123Z,42.40
2022-12-27T01:24:48.620Z,38.60
2022-12-27T01:27:15.128Z,43.25
2022-12-27T01:29:41.572Z,44.00
2022-12-27T01:32:08.096Z,41.50
2022-12-27T01:34:34.627Z,43.40
2022-12-27T01:37:01.399Z,44.60
2022-12-27T01:39:27.892Z,44.50
2022-12-27T01:42:13.101Z,44.00
2022-12-27T01:44:43.783Z,43.00
2022-12-27T01:47:17.999Z,43.40
2022-12-27T01:49:59.802Z,43.20
2022-12-27T01:52:28.623Z,43.00
2022-12-27T01:54:57.680Z,40.50
2022-12-27T01:57:24.119Z,43.75
2022-12-27T01:59:50.658Z,40.25
2022-12-27T02:02:17.255Z,41.00
2022-12-27T02:04:44.041Z,40.20
2022-12-27T02:07:10.527Z,41.00
2022-12-27T02:09:46.155Z,40.20
2022-12-27T02:12:13.454Z,39.00
2022-12-27T02:14:39.911Z,41.00
2022-12-27T02:17:07.685Z,40.00
2022-12-27T02:19:37.249Z,40.00
2022-12-27T02:22:03.662Z,41.00
2022-12-27T02:24:48.330Z,39.60
2022-12-27T02:27:27.724Z,42.50
2022-12-27T02:29:54.147Z,40.00
2022-12-27T02:32:20.749Z,38.80
2022-12-27T02:35:08.624Z,39.00
2022-12-27T02:37:38.573Z,41.40
2022-12-27T02:40:25.576Z,41.00
2022-12-27T02:43:11.090Z,42.25
2022-12-27T02:46:00.156Z,41.00
2022-12-27T02:48:45.117Z,39.00
2022-12-27T02:51:30.031Z,39.00
2022-12-27T02:54:15.072Z,37.50
2022-12-27T02:57:09.583Z,35.25
2022-12-27T02:59:36.102Z,39.20
2022-12-27T03:02:33.292Z,38.40
2022-12-27T03:04:59.875Z,37.75
2022-12-27T03:07:45.550Z,38.00
2022-12-27T03:10:33.986Z,37.00
2022-12-27T03:13:18.931Z,34.20
2022-12-27T03:16:00.119Z,36.75
2022-12-27T03:18:36.798Z,36.00
2022-12-27T03:21:23.730Z,32.40
2022-12-27T03:24:09.743Z,36.00
2022-12-27T03:26:38.140Z,33.25
2022-12-27T03:29:24.912Z,36.75
2022-12-27T03:32:12.852Z,34.80
2022-12-27T03:34:42.868Z,36.50
2022-12-27T03:37:30.675Z,32.20
2022-12-27T03:39:57.105Z,34.75
2022-12-27T03:42:45.438Z,37.75
2022-12-27T03:45:11.933Z,31.50
2022-12-27T03:47:38.332Z,33.20
2022-12-27T03:50:08.858Z,30.40
2022-12-27T03:52:39.136Z,33.00
2022-12-27T03:55:06.048Z,33.00
2022-12-27T03:57:32.593Z,30.25
2022-12-27T03:59:59.177Z,31.50
2022-12-27T04:02:25.779Z,30.40
2022-12-27T04:04:52.379Z,27.25
2022-12-27T04:07:18.854Z,28.40
2022-12-27T04:10:03.731Z,23.50
2022-12-27T04:12:48.889Z,28.75
2022-12-27T04:15:33.867Z,30.00
2022-12-27T04:18:19.084Z,25.25
2022-12-27T04:21:04.018Z,26.00
2022-12-27T04:23:48.882Z,23.60
2022-12-27T04:26:33.971Z,27.00
2022-12-27T04:29:18.736Z,20.00
2022-12-27T04:32:03.760Z,20.75
2022-12-27T04:34:45.319Z,24.80
2022-12-27T04:37:15.786Z,21.75
2022-12-27T04:39:42.645Z,20.50
2022-12-27T04:42:28.622Z,18.25
2022-12-27T04:45:15.541Z,18.00
2022-12-27T04:48:00.921Z,20.00
2022-12-27T04:50:47.941Z,18.00
2022-12-27T04:53:37.850Z,19.75
2022-12-27T04:56:04.834Z,19.50
2022-12-27T04:58:31.518Z,20.20
2022-12-27T05:01:18.121Z,20.00
2022-12-27T05:03:45.747Z,16.00
2022-12-27T05:06:12.430Z,14.20
2022-12-27T05:08:57.632Z,16.00
2022-12-27T05:11:42.750Z,13.00
2022-12-27T05:14:10.859Z,16.60
2022-12-27T05:16:38.384Z,16.00
2022-12-27T05:19:06.157Z,15.00
2022-12-27T05:21:38.728Z,15.60
2022-12-27T05:24:24.484Z,15.00
2022-12-27T05:26:51.070Z,19.25
2022-12-27T05:29:17.535Z,12.80
2022-12-27T05:31:44.146Z,15.00
2022-12-27T05:34:10.679Z,12.40
2022-12-27T05:36:37.156Z,18.50
2022-12-27T05:39:03.662Z,11.75
2022-12-27T05:41:30.126Z,11.60
2022-12-27T05:44:00.782Z,13.60
2022-12-27T05:46:29.836Z,13.00
2022-12-27T05:48:56.337Z,19.00
2022-12-27T05:51:22.847Z,13.60
2022-12-27T05:53:49.295Z,17.20
2022-12-27T05:56:17.126Z,13.60
2022-12-27T05:58:43.879Z,13.80
2022-12-27T06:01:11.557Z,13.00
2022-12-27T06:03:38.434Z,13.00
2022-12-27T06:06:07.921Z,12.80
2022-12-27T06:08:35.057Z,13.50
2022-12-27T06:11:02.721Z,14.60
2022-12-27T06:13:29.312Z,15.75
2022-12-27T06:15:57.805Z,14.00
2022-12-27T06:18:24.290Z,11.20
2022-12-27T06:20:50.785Z,13.25
2022-12-27T06:23:17.249Z,10.33
2022-12-27T06:25:43.699Z,15.00
2022-12-27T06:28:10.169Z,17.00
2022-12-27T06:30:36.681Z,20.50
2022-12-27T06:33:03.362Z,12.50
2022-12-27T06:35:29.844Z,14.00
2022-12-27T06:37:56.271Z,18.60
2022-12-27T06:40:22.803Z,13.00
2022-12-27T06:42:49.346Z,12.75
2022-12-27T06:45:15.820Z,10.00
2022-12-27T06:47:42.321Z,12.40
2022-12-27T06:50:08.978Z,11.00
2022-12-27T06:52:35.398Z,13.25
2022-12-27T06:55:01.936Z,16.00
2022-12-27T06:57:28.416Z,14.00
2022-12-27T06:59:54.903Z,13.00
2022-12-27T07:02:21.574Z,12.00
2022-12-27T07:04:48.089Z,14.00
2022-12-27T07:07:15.948Z,14.20
2022-12-27T07:09:42.572Z,13.00
2022-12-27T07:12:09.056Z,23.25
2022-12-27T07:14:35.626Z,17.60
2022-12-27T07:17:02.151Z,17.80
2022-12-27T07:19:28.585Z,20.60
2022-12-27T07:21:55.074Z,15.40
2022-12-27T07:24:21.557Z,13.60
2022-12-27T07:26:48.001Z,13.75
2022-12-27T07:29:14.483Z,14.00
2022-12-27T07:31:41.190Z,28.00
2022-12-27T07:34:07.808Z,32.00
2022-12-27T07:36:35.878Z,28.00
2022-12-27T07:39:02.804Z,25.60
2022-12-27T07:41:29.441Z,20.00
2022-12-27T07:43:55.899Z,31.60
2022-12-27T07:46:23.861Z,18.00
2022-12-27T07:48:50.537Z,15.50
2022-12-27T07:51:17.412Z,16.25
2022-12-27T07:53:44.416Z,14.80
2022-12-27T07:56:16.753Z,26.00
2022-12-27T07:58:47.600Z,27.00
2022-12-27T08:01:14.924Z,22.67
2022-12-27T08:03:42.100Z,18.00
2022-12-27T08:06:18.791Z,30.00
2022-12-27T08:08:45.382Z,19.00
2022-12-27T08:11:12.012Z,28.00
2022-12-27T08:13:39.282Z,35.20
2022-12-27T08:16:06.447Z,27.50
2022-12-27T08:18:32.883Z,29.00
2022-12-27T08:20:59.327Z,28.00
2022-12-27T08:23:25.884Z,22.75
2022-12-27T08:25:52.377Z,30.80
2022-12-27T08:28:18.847Z,20.50
2022-12-27T08:30:46.211Z,13.40
2022-12-27T08:33:12.729Z,16.80
2022-12-27T08:35:52.820Z,26.25
2022-12-27T08:38:20.628Z,26.50
2022-12-27T08:40:47.176Z,18.00
2022-12-27T08:43:14.357Z,18.80
2022-12-27T08:45:40.915Z,20.00
2022-12-27T08:48:07.739Z,18.00
2022-12-27T08:50:34.317Z,13.40
2022-12-27T08:53:01.737Z,21.00
2022-12-27T08:55:28.872Z,13.75
2022-12-27T08:58:09.217Z,17.00
2022-12-27T09:00:40.448Z,18.20
2022-12-27T09:03:06.977Z,10.00
2022-12-27T09:05:39.601Z,11.50
2022-12-27T09:08:08.079Z,15.00
2022-12-27T09:10:34.581Z,11.50
2022-12-27T09:13:01.039Z,19.00
2022-12-27T09:15:27.604Z,10.25
2022-12-27T09:17:54.165Z,7.75
2022-12-27T09:20:20.637Z,7.25
2022-12-27T09:22:47.094Z,5.00
2022-12-27T09:25:13.580Z,6.00
2022-12-27T09:27:40.086Z,5.60
2022-12-27T09:30:07.909Z,5.75
2022-12-27T09:32:34.407Z,7.25
2022-12-27T09:35:00.847Z,4.00
2022-12-27T09:37:27.317Z,6.60
2022-12-27T09:39:53.792Z,6.00
2022-12-27T09:42:52.235Z,7.00
2022-12-27T09:45:19.070Z,6.00
2022-12-27T09:47:51.354Z,6.75
2022-12-27T09:50:42.943Z,7.40
2022-12-27T09:53:17.405Z,4.50
2022-12-27T09:55:50.013Z,5.00
2022-12-27T09:58:34.707Z,5.00
2022-12-27T10:01:01.947Z,4.00
2022-12-27T10:03:29.897Z,5.00
2022-12-27T10:06:11.483Z,5.00
2022-12-27T10:08:56.832Z,5.50
2022-12-27T10:11:40.203Z,8.00
2022-12-27T10:14:06.851Z,5.40
2022-12-27T10:16:53.565Z,6.00
2022-12-27T10:19:38.814Z,9.00
2022-12-27T10:22:14.267Z,4.00
2022-12-27T10:24:51.645Z,8.40
2022-12-27T10:27:21.515Z,6.00
2022-12-27T10:29:48.925Z,8.50
2022-12-27T10:32:16.080Z,4.80
2022-12-27T10:34:42.767Z,4.00
2022-12-27T10:37:18.237Z,4.00
2022-12-27T10:39:44.688Z,3.50
2022-12-27T10:42:16.993Z,5.00
2022-12-27T10:44:43.471Z,5.00
2022-12-27T10:47:11.060Z,3.60
2022-12-27T10:49:38.753Z,5.00
2022-12-27T10:52:22.723Z,7.40
2022-12-27T10:54:51.143Z,6.00
2022-12-27T10:57:28.627Z,6.60
2022-12-27T11:00:07.684Z,5.40
2022-12-27T11:02:34.236Z,4.00
2022-12-27T11:05:01.185Z,5.50
2022-12-27T11:07:32.412Z,5.00
2022-12-27T11:10:14.569Z,8.00
2022-12-27T11:12:54.412Z,2.00
2022-12-27T11:15:20.962Z,4.25
2022-12-27T11:17:50.425Z,5.00
2022-12-27T11:20:23.208Z,7.00
2022-12-27T11:22:52.740Z,2.00
2022-12-27T11:25:20.001Z,2.60
2022-12-27T11:27:51.052Z,2.00
2022-12-27T11:30:26.654Z,1.20
2022-12-27T11:32:53.396Z,3.00
2022-12-27T11:35:21.341Z,2.75
2022-12-27T11:37:48.950Z,4.00
2022-12-27T11:40:23.784Z,2.00
2022-12-27T11:42:59.783Z,2.40
2022-12-27T11:45:32.901Z,3.00
2022-12-27T11:48:02.927Z,2.40
2022-12-27T11:50:48.142Z,2.00
2022-12-27T11:53:48.707Z,2.00
2022-12-27T11:56:17.433Z,2.40
2022-12-27T11:59:02.262Z,2.00
2022-12-27T12:01:49.030Z,2.00
2022-12-27T12:04:34.614Z,3.00
2022-12-27T12:07:01.197Z,2.00
2022-12-27T12:09:27.585Z,2.20
2022-12-27T12:11:55.341Z,2.00
2022-12-27T12:14:40.059Z,2.20
2022-12-27T12:17:25.077Z,2.00
2022-12-27T12:20:03.385Z,2.00
2022-12-27T12:22:48.947Z,3.80
2022-12-27T12:25:34.166Z,2.00
2022-12-27T12:28:47.245Z,2.50
2022-12-27T12:31:22.529Z,2.60
2022-12-27T12:34:07.623Z,2.00
2022-12-27T12:36:34.127Z,3.00
2022-12-27T12:39:22.077Z,2.20
2022-12-27T12:41:48.540Z,1.50
2022-12-27T12:44:26.963Z,3.00
2022-12-27T12:47:08.520Z,2.00
2022-12-27T12:49:36.022Z,1.00
2022-12-27T12:52:21.099Z,1.60
2022-12-27T12:54:56.557Z,1.25
2022-12-27T12:57:41.398Z,3.00
2022-12-27T13:00:16.851Z,5.80
2022-12-27T13:02:46.540Z,2.20
2022-12-27T13:05:16.238Z,2.00
2022-12-27T13:08:01.703Z,3.50
2022-12-27T13:10:36.987Z,2.00
2022-12-27T13:13:15.616Z,1.33
2022-12-27T13:16:06.175Z,0.60
2022-12-27T13:18:38.802Z,1.00
2022-12-27T13:21:14.026Z,2.00
2022-12-27T13:23:43.577Z,1.00
2022-12-27T13:26:32.201Z,1.20
2022-12-27T13:29:17.273Z,1.40
2022-12-27T13:32:03.131Z,1.00
2022-12-27T13:34:40.370Z,3.00
2022-12-27T13:37:06.798Z,2.00
2022-12-27T13:39:42.606Z,1.00
2022-12-27T13:42:29.435Z,1.40
2022-12-27T13:45:14.667Z,1.40
2022-12-27T13:47:59.905Z,1.75
2022-12-27T13:50:32.203Z,2.00
2022-12-27T13:53:05.804Z,1.50
2022-12-27T13:55:32.211Z,3.00
2022-12-27T13:58:13.979Z,1.40
2022-12-27T14:00:51.973Z,5.00
2022-12-27T14:03:28.104Z,1.40
2022-12-27T14:06:13.488Z,2.00
2022-12-27T14:08:55.841Z,3.00
2022-12-27T14:11:36.400Z,1.00
2022-12-27T14:14:04.116Z,1.40
2022-12-27T14:16:41.558Z,2.00
2022-12-27T14:19:21.604Z,2.00
2022-12-27T14:21:58.830Z,2.00
2022-12-27T14:24:34.215Z,2.00
2022-12-27T14:27:19.312Z,0.40
2022-12-27T14:30:04.779Z,2.40
2022-12-27T14:32:31.237Z,2.50
2022-12-27T14:35:00.750Z,2.75
2022-12-27T14:37:46.110Z,2.25
2022-12-27T14:40:34.799Z,2.33
2022-12-27T14:43:04.671Z,3.00
2022-12-27T14:45:53.815Z,3.20
2022-12-27T14:48:30.000Z,2.75
2022-12-27T14:51:41.580Z,4.00
2022-12-27T14:54:01.201Z,5.00
2022-12-27T14:56:27.621Z,6.00
2022-12-27T14:58:57.027Z,5.40
2022-12-27T15:01:26.749Z,7.00
2022-12-27T15:03:57.099Z,8.00
2022-12-27T15:06:42.155Z,8.75
2022-12-27T15:09:20.191Z,35.40
2022-12-27T15:12:09.232Z,33.00
2022-12-27T15:14:55.184Z,78.40
2022-12-27T15:17:21.591Z,101.80
2022-12-27T15:20:07.236Z,65.50
2022-12-27T15:22:39.866Z,66.20
2022-12-27T15:25:25.635Z,40.40
2022-12-27T15:28:00.068Z,66.75
2022-12-27T15:30:32.580Z,21.00
2022-12-27T15:33:14.248Z,13.40
2022-12-27T15:35:44.781Z,30.00
2022-12-27T15:38:13.184Z,34.20
2022-12-27T15:40:42.833Z,22.80
2022-12-27T15:43:26.811Z,30.75
2022-12-27T15:46:12.194Z,39.60
2022-12-27T15:49:04.757Z,39.60
2022-12-27T15:51:37.327Z,12.00
2022-12-27T15:54:19.094Z,11.60
2022-12-27T15:57:00.960Z,3.50
2022-12-27T15:59:48.146Z,5.00
2022-12-27T16:02:17.435Z,6.00
2022-12-27T16:04:49.008Z,4.00
2022-12-27T16:07:38.340Z,28.25
2022-12-27T16:10:23.674Z,54.25
2022-12-27T16:12:50.528Z,40.25
2022-12-27T16:15:35.702Z,40.00
2022-12-27T16:18:03.253Z,43.20
2022-12-27T16:20:30.325Z,32.75
2022-12-27T16:22:56.893Z,49.60
2022-12-27T16:25:30.953Z,58.25
2022-12-27T16:28:03.409Z,34.25
2022-12-27T16:30:41.399Z,38.00
2022-12-27T16:33:21.518Z,46.25
2022-12-27T16:36:06.865Z,46.00
2022-12-27T16:38:34.524Z,47.60
2022-12-27T16:41:30.094Z,47.25
2022-12-27T16:43:59.586Z,49.00
2022-12-27T16:46:26.118Z,40.60
2022-12-27T16:49:11.136Z,32.00
2022-12-27T16:51:37.581Z,47.40
2022-12-27T16:54:13.110Z,46.00
2022-12-27T16:56:44.777Z,45.80
2022-12-27T16:59:29.971Z,57.00
2022-12-27T17:01:57.466Z,44.60
2022-12-27T17:04:43.906Z,41.80
2022-12-27T17:07:30.257Z,37.75
2022-12-27T17:10:16.662Z,40.00
2022-12-27T17:12:46.837Z,46.00
2022-12-27T17:15:13.727Z,45.25
2022-12-27T17:17:43.446Z,48.00
2022-12-27T17:20:15.470Z,46.00
2022-12-27T17:22:42.341Z,31.00
2022-12-27T17:25:15.044Z,26.60
2022-12-27T17:27:59.948Z,21.00
2022-12-27T17:30:37.215Z,32.00
2022-12-27T17:33:09.676Z,24.60
2022-12-27T17:35:36.080Z,33.00
2022-12-27T17:38:08.565Z,30.40
2022-12-27T17:40:53.272Z,47.40
2022-12-27T17:43:44.673Z,32.50
2022-12-27T17:46:11.173Z,22.00
2022-12-27T17:48:37.905Z,23.50
2022-12-27T17:51:12.361Z,28.20
2022-12-27T17:54:07.451Z,30.00
2022-12-27T17:57:12.757Z,28.50
2022-12-27T17:59:42.700Z,14.20
2022-12-27T18:02:38.658Z,15.20
2022-12-27T18:05:07.523Z,19.80
2022-12-27T18:07:34.462Z,29.50
2022-12-27T18:10:03.980Z,38.60
2022-12-27T18:12:34.574Z,22.00
2022-12-27T18:15:02.880Z,18.00
2022-12-27T18:17:39.484Z,24.60
2022-12-27T18:20:20.872Z,29.40
2022-12-27T18:22:47.372Z,26.40
2022-12-27T18:25:24.243Z,36.50
2022-12-27T18:28:13.732Z,122.60
2022-12-27T18:30:42.955Z,74.00
2022-12-27T18:33:13.536Z,47.50
2022-12-27T18:35:45.609Z,47.00
2022-12-27T18:38:13.306Z,44.00
2022-12-27T18:40:40.162Z,36.25
2022-12-27T18:43:13.434Z,36.50
2022-12-27T18:45:39.934Z,25.60
2022-12-27T18:48:10.128Z,30.00
2022-12-27T18:50:36.612Z,27.25
2022-12-27T18:53:21.644Z,26.00
2022-12-27T18:55:57.272Z,21.00
2022-12-27T18:58:23.726Z,25.50
2022-12-27T19:00:52.335Z,31.80
2022-12-27T19:03:20.362Z,34.40
2022-12-27T19:06:01.996Z,34.25
2022-12-27T19:08:33.997Z,38.50
2022-12-27T19:11:00.562Z,40.25
2022-12-27T19:13:56.684Z,42.75
2022-12-27T19:16:31.644Z,42.80
2022-12-27T19:19:01.305Z,44.00
2022-12-27T19:21:32.923Z,43.25
2022-12-27T19:24:18.427Z,44.00
2022-12-27T19:26:44.925Z,43.40
2022-12-27T19:29:16.291Z,42.00
2022-12-27T19:31:44.321Z,40.00
2022-12-27T19:34:15.809Z,35.25
2022-12-27T19:36:43.761Z,33.80
2022-12-27T19:39:21.180Z,33.40
2022-12-27T19:41:48.448Z,36.00
2022-12-27T19:44:15.142Z,30.25
2022-12-27T19:46:41.662Z,29.00
2022-12-27T19:49:40.251Z,32.20
2022-12-27T19:51:56.095Z,38.00
2022-12-27T19:54:23.183Z,34.00
2022-12-27T19:56:49.807Z,33.00
2022-12-27T19:59:17.344Z,40.00
2022-12-27T20:01:45.522Z,39.00
2022-12-27T20:04:12.594Z,38.60
2022-12-27T20:06:39.281Z,33.75
2022-12-27T20:09:07.469Z,38.00
2022-12-27T20:11:33.974Z,31.60
2022-12-27T20:14:00.513Z,31.25
2022-12-27T20:16:27.101Z,31.60
2022-12-27T20:18:53.691Z,36.00
2022-12-27T20:21:20.862Z,43.50
2022-12-27T20:23:47.679Z,42.50
2022-12-27T20:26:17.098Z,44.00
2022-12-27T20:28:43.556Z,41.00
2022-12-27T20:31:10.821Z,45.00
2022-12-27T20:33:37.306Z,43.00
2022-12-27T20:36:04.017Z,43.50
2022-12-27T20:38:30.717Z,42.00
2022-12-27T20:40:57.180Z,44.20
2022-12-27T20:43:23.661Z,42.20
2022-12-27T20:45:50.223Z,46.00
2022-12-27T20:48:16.932Z,42.50
2022-12-27T20:50:43.462Z,39.60
2022-12-27T20:53:09.903Z,43.25
2022-12-27T20:55:36.398Z,38.00
2022-12-27T20:58:03.269Z,38.00
2022-12-27T21:00:29.703Z,39.00
2022-12-27T21:02:56.943Z,38.40
2022-12-27T21:05:23.734Z,43.40
2022-12-27T21:07:50.225Z,42.60
2022-12-27T21:10:16.686Z,50.50
2022-12-27T21:12:43.149Z,48.50
2022-12-27T21:15:10.973Z,52.00
2022-12-27T21:17:37.543Z,48.80
2022-12-27T21:20:06.464Z,48.00
2022-12-27T21:22:32.955Z,49.00
2022-12-27T21:24:59.445Z,44.20
2022-12-27T21:27:25.913Z,43.50
2022-12-27T21:29:52.374Z,41.60
2022-12-27T21:32:18.938Z,42.50
2022-12-27T21:34:45.491Z,43.00
2022-12-27T21:37:13.612Z,41.50
2022-12-27T21:39:40.300Z,38.00
2022-12-27T21:42:06.804Z,35.00
2022-12-27T21:44:35.421Z,49.50
2022-12-27T21:47:01.926Z,53.80
2022-12-27T21:49:28.453Z,54.25
2022-12-27T21:51:55.775Z,46.75
2022-12-27T21:54:22.287Z,49.25
2022-12-27T21:56:48.807Z,49.67
2022-12-27T21:59:15.360Z,49.25
2022-12-27T22:01:50.551Z,47.00
2022-12-27T22:04:18.736Z,48.50
2022-12-27T22:06:47.489Z,52.50
2022-12-27T22:09:14.744Z,51.25
2022-12-27T22:11:41.236Z,52.50
2022-12-27T22:14:07.757Z,52.20
2022-12-27T22:16:35.713Z,56.00
2022-12-27T22:19:02.737Z,60.00
2022-12-27T22:21:30.358Z,65.50
2022-12-27T22:23:59.079Z,71.00
2022-12-27T22:26:29.782Z,66.00
2022-12-27T22:28:56.289Z,70.75
2022-12-27T22:31:24.741Z,62.67
2022-12-27T22:33:51.353Z,63.67
2022-12-27T22:36:19.234Z,68.00
2022-12-27T22:38:49.469Z,64.40
2022-12-27T22:41:20.537Z,66.00
2022-12-27T22:43:51.579Z,67.00
2022-12-27T22:46:18.544Z,59.40
2022-12-27T22:48:49.038Z,63.00
2022-12-27T22:51:17.536Z,59.50
2022-12-27T22:53:44.037Z,56.75
2022-12-27T22:56:15.146Z,61.00
2022-12-27T22:58:41.683Z,57.00
2022-12-27T23:01:11.828Z,57.40
2022-12-27T23:03:38.349Z,60.00
2022-12-27T23:06:04.918Z,61.00
2022-12-27T23:08:31.392Z,55.80
2022-12-27T23:11:02.156Z,60.25
2022-12-27T23:13:28.682Z,62.40
2022-12-27T23:15:59.162Z,66.80
2022-12-27T23:18:26.370Z,62.20
2022-12-27T23:21:21.432Z,68.80
2022-12-27T23:23:39.748Z,69.25
2022-12-27T23:26:09.731Z,61.40
2022-12-27T23:28:37.131Z,67.00
2022-12-27T23:31:04.355Z,59.50
2022-12-27T23:33:30.985Z,68.50
2022-12-27T23:35:57.748Z,69.25
2022-12-27T23:38:24.213Z,65.60
2022-12-27T23:41:01.110Z,66.40
2022-12-27T23:44:01.257Z,71.00
2022-12-27T23:46:19.417Z,85.75
2022-12-27T23:48:45.913Z,84.75
2022-12-27T23:51:13.274Z,82.00
2022-12-27T23:53:39.870Z,83.75
2022-12-27T23:56:25.490Z,78.50
2022-12-27T23:58:53.202Z,80.60
